KTOI

Troy Municipal at N Kenneth Campbell Field Airport

Troy, Alabama, USA
METAR KTOI 191753Z AUTO 11004KT 10SM SCT049 34/21 A2999 RMK AO2 SLP149 6//// T03390206 10339 20200
Observed Flight Rules
Sep-19 @ 17:53 UTC (54 minutes ago) Visual Flight Rules
Wind Visibility Clouds
110° at 4 knots 10 miles
  • Scattered at 4,900' AGL
Temperatures Readings
Current 34°C / 93°F
Dewpoint 21°C / 70°F
Humidity 47%
Altimeter 29.99" Hg
Pressure 1014.9 hPa
Elevation 118
METAR KTOI 191753Z AUTO 11004KT 10SM SCT049 34/21 A2999 RMK AO2 SLP149 6//// T03390206 10339 20200
Observed Flight Rules
Sep-19 @ 17:53 UTC
(54 minutes ago)
VFR
Wind Visibility
110° at 4 knots 10 miles
Clouds
  • Scattered at 4,900' AGL
Temperature Dewpoint
34°C / 93°F 21°C / 70°F
Humidity Altimeter Pressure
47% 29.99" Hg 1014.9 hPa